createdAt,value
2023-05-15T00:02:26.816Z,14.33
2023-05-15T00:04:54.064Z,14.60
2023-05-15T00:07:21.214Z,14.27
2023-05-15T00:09:48.201Z,14.33
2023-05-15T00:12:15.490Z,14.90
2023-05-15T00:14:42.382Z,13.90
2023-05-15T00:17:09.893Z,14.07
2023-05-15T00:19:36.836Z,15.83
2023-05-15T00:22:04.059Z,15.57
2023-05-15T00:24:30.984Z,14.33
2023-05-15T00:27:00.157Z,16.57
2023-05-15T00:29:27.514Z,15.20
2023-05-15T00:31:54.731Z,16.03
2023-05-15T00:34:22.205Z,15.50
2023-05-15T00:36:49.440Z,15.50
2023-05-15T00:39:16.437Z,14.67
2023-05-15T00:41:45.778Z,15.43
2023-05-15T00:44:13.784Z,15.50
2023-05-15T00:46:41.952Z,14.77
2023-05-15T00:49:13.592Z,14.87
2023-05-15T00:51:43.913Z,16.30
2023-05-15T00:54:11.583Z,15.40
2023-05-15T00:56:40.307Z,16.20
2023-05-15T00:59:08.666Z,16.00
2023-05-15T01:01:35.816Z,17.33
2023-05-15T01:04:05.145Z,16.37
2023-05-15T01:06:32.770Z,17.77
2023-05-15T01:09:08.028Z,17.73
2023-05-15T01:11:38.199Z,17.17
2023-05-15T01:14:08.017Z,18.20
2023-05-15T01:16:36.334Z,18.80
2023-05-15T01:19:05.451Z,17.07
2023-05-15T01:21:35.688Z,17.33
2023-05-15T01:24:56.597Z,18.23
2023-05-15T01:27:48.650Z,18.70
2023-05-15T01:30:27.116Z,17.37
2023-05-15T01:33:20.610Z,18.40
2023-05-15T01:36:05.967Z,17.70
2023-05-15T01:38:48.901Z,17.73
2023-05-15T01:41:55.870Z,18.80
2023-05-15T01:44:30.212Z,17.93
2023-05-15T01:47:07.808Z,19.40
2023-05-15T01:49:38.497Z,18.97
2023-05-15T01:52:18.857Z,18.77
2023-05-15T01:54:48.003Z,19.50
2023-05-15T01:57:17.096Z,18.80
2023-05-15T01:59:45.913Z,19.27
2023-05-15T02:02:15.328Z,18.73
2023-05-15T02:04:45.948Z,18.17
2023-05-15T02:07:14.724Z,18.73
2023-05-15T02:09:43.160Z,19.30
2023-05-15T02:12:11.791Z,19.17
2023-05-15T02:14:41.247Z,20.10
2023-05-15T02:17:08.465Z,18.30
2023-05-15T02:19:35.798Z,19.23
2023-05-15T02:22:03.670Z,17.83
2023-05-15T02:24:30.626Z,17.10
2023-05-15T02:27:28.522Z,18.23
2023-05-15T02:30:29.452Z,16.17
2023-05-15T02:33:17.348Z,16.27
2023-05-15T02:35:52.849Z,15.83
2023-05-15T02:38:29.151Z,16.80
2023-05-15T02:40:59.175Z,16.83
2023-05-15T02:43:27.809Z,16.83
2023-05-15T02:45:56.981Z,18.10
2023-05-15T02:48:26.926Z,18.90
2023-05-15T02:50:54.200Z,19.17
2023-05-15T02:53:21.554Z,20.23
2023-05-15T02:55:48.600Z,20.67
2023-05-15T02:58:16.106Z,21.40
2023-05-15T03:00:43.867Z,19.87
2023-05-15T03:03:10.824Z,20.77
2023-05-15T03:05:37.832Z,21.13
2023-05-15T03:08:05.748Z,20.23
2023-05-15T03:10:32.744Z,22.27
2023-05-15T03:12:59.688Z,21.30
2023-05-15T03:15:26.974Z,21.13
2023-05-15T03:17:54.144Z,22.03
2023-05-15T03:20:21.294Z,22.90
2023-05-15T03:22:48.366Z,23.07
2023-05-15T03:25:15.785Z,23.80
2023-05-15T03:27:42.922Z,24.43
2023-05-15T03:30:10.678Z,23.30
2023-05-15T03:32:37.605Z,23.60
2023-05-15T03:35:05.011Z,24.50
2023-05-15T03:37:32.623Z,25.37
2023-05-15T03:39:59.567Z,23.83
2023-05-15T03:42:27.896Z,23.63
2023-05-15T03:44:56.121Z,24.67
2023-05-15T03:47:23.232Z,24.77
2023-05-15T03:49:52.986Z,24.93
2023-05-15T03:52:20.068Z,23.90
2023-05-15T03:54:47.061Z,25.90
2023-05-15T03:57:13.991Z,25.37
2023-05-15T03:59:41.350Z,25.03
2023-05-15T04:02:08.417Z,24.73
2023-05-15T04:04:35.895Z,25.37
2023-05-15T04:07:02.864Z,24.50
2023-05-15T04:09:29.764Z,24.57
2023-05-15T04:11:56.866Z,26.10
2023-05-15T04:14:23.732Z,25.70
2023-05-15T04:16:50.858Z,26.53
2023-05-15T04:19:18.057Z,26.07
2023-05-15T04:21:45.250Z,24.50
2023-05-15T04:24:12.903Z,26.53
2023-05-15T04:26:39.917Z,25.33
2023-05-15T04:29:06.903Z,24.50
2023-05-15T04:31:35.161Z,25.70
2023-05-15T04:34:02.265Z,24.97
2023-05-15T04:36:29.266Z,24.97
2023-05-15T04:38:56.421Z,25.83
2023-05-15T04:41:23.566Z,25.97
2023-05-15T04:43:50.858Z,28.40
2023-05-15T04:46:17.819Z,27.47
2023-05-15T04:48:44.745Z,29.13
2023-05-15T04:51:12.198Z,28.47
2023-05-15T04:53:39.136Z,29.53
2023-05-15T04:56:06.306Z,27.53
2023-05-15T04:58:33.192Z,30.63
2023-05-15T05:01:03.543Z,29.70
2023-05-15T05:03:31.046Z,31.53
2023-05-15T05:05:58.006Z,31.43
2023-05-15T05:08:24.987Z,31.30
2023-05-15T05:10:58.433Z,32.30
2023-05-15T05:13:25.409Z,29.90
2023-05-15T05:15:52.358Z,32.20
2023-05-15T05:18:19.402Z,31.67
2023-05-15T05:20:46.346Z,31.70
2023-05-15T05:23:15.068Z,31.33
2023-05-15T05:25:42.212Z,32.97
2023-05-15T05:28:09.279Z,33.03
2023-05-15T05:30:36.229Z,31.10
2023-05-15T05:33:03.318Z,31.90
2023-05-15T05:35:30.292Z,33.80
2023-05-15T05:37:57.267Z,33.03
2023-05-15T05:40:24.248Z,33.43
2023-05-15T05:42:51.652Z,35.07
2023-05-15T05:45:18.700Z,35.20
2023-05-15T05:47:45.817Z,36.50
2023-05-15T05:50:12.790Z,34.70
2023-05-15T05:52:39.826Z,36.97
2023-05-15T05:55:07.218Z,34.03
2023-05-15T05:57:34.228Z,33.13
2023-05-15T06:00:01.349Z,35.07
2023-05-15T06:02:28.869Z,34.10
2023-05-15T06:04:55.828Z,35.80
2023-05-15T06:07:23.479Z,33.87
2023-05-15T06:09:50.504Z,32.90
2023-05-15T06:12:17.442Z,32.63
2023-05-15T06:14:44.447Z,32.37
2023-05-15T06:17:12.080Z,31.73
2023-05-15T06:19:39.094Z,31.83
2023-05-15T06:22:06.169Z,31.80
2023-05-15T06:24:33.304Z,31.87
2023-05-15T06:27:03.657Z,28.50
2023-05-15T06:29:30.790Z,29.57
2023-05-15T06:31:57.873Z,32.30
2023-05-15T06:34:24.936Z,30.87
2023-05-15T06:36:52.592Z,30.70
2023-05-15T06:39:19.605Z,30.73
2023-05-15T06:41:46.581Z,29.80
2023-05-15T06:44:13.647Z,28.43
2023-05-15T06:46:40.660Z,30.80
2023-05-15T06:49:07.655Z,30.87
2023-05-15T06:51:34.726Z,31.67
2023-05-15T06:54:01.810Z,29.33
2023-05-15T06:56:28.641Z,28.73
2023-05-15T06:58:56.551Z,30.33
2023-05-15T07:01:23.507Z,30.20
2023-05-15T07:03:50.580Z,32.05
2023-05-15T07:06:17.455Z,32.70
2023-05-15T07:08:44.498Z,30.33
2023-05-15T07:11:11.841Z,29.45
2023-05-15T07:13:38.854Z,28.45
2023-05-15T07:16:06.299Z,30.80
2023-05-15T07:18:33.440Z,29.67
2023-05-15T07:21:00.434Z,30.38
2023-05-15T07:23:27.653Z,28.25
2023-05-15T07:25:55.790Z,28.83
2023-05-15T07:28:23.113Z,29.50
2023-05-15T07:30:50.676Z,27.08
2023-05-15T07:33:17.744Z,29.08
2023-05-15T07:35:44.635Z,27.63
2023-05-15T07:38:12.111Z,28.90
2023-05-15T07:40:39.094Z,28.08
2023-05-15T07:43:06.042Z,28.15
2023-05-15T07:45:33.165Z,27.73
2023-05-15T07:48:13.699Z,26.27
2023-05-15T07:50:40.910Z,26.38
2023-05-15T07:53:07.888Z,27.55
2023-05-15T07:55:34.803Z,26.75
2023-05-15T07:58:01.746Z,26.17
2023-05-15T08:00:28.904Z,24.70
2023-05-15T08:02:56.417Z,23.83
2023-05-15T08:05:23.522Z,23.17
2023-05-15T08:07:50.801Z,24.45
2023-05-15T08:10:17.907Z,22.98
2023-05-15T08:12:47.167Z,22.45
2023-05-15T08:15:14.642Z,22.45
2023-05-15T08:17:41.758Z,22.13
2023-05-15T08:20:09.936Z,22.25
2023-05-15T08:22:36.923Z,22.48
2023-05-15T08:25:06.713Z,22.73
2023-05-15T08:27:33.869Z,22.90
2023-05-15T08:30:00.943Z,22.35
2023-05-15T08:32:28.131Z,20.77
2023-05-15T08:34:55.061Z,20.08
2023-05-15T08:37:22.101Z,21.42
2023-05-15T08:39:48.985Z,21.85
2023-05-15T08:42:34.119Z,20.00
2023-05-15T08:45:03.942Z,21.48
2023-05-15T08:47:35.559Z,20.20
2023-05-15T08:50:17.176Z,20.80
2023-05-15T08:52:49.499Z,20.45
2023-05-15T08:55:17.584Z,19.58
2023-05-15T08:57:46.263Z,19.50
2023-05-15T09:00:14.779Z,18.50
2023-05-15T09:02:43.163Z,19.83
2023-05-15T09:05:10.847Z,19.23
2023-05-15T09:07:40.894Z,20.08
2023-05-15T09:10:09.814Z,18.23
2023-05-15T09:12:45.971Z,19.33
2023-05-15T09:15:17.298Z,19.88
2023-05-15T09:17:45.965Z,19.17
2023-05-15T09:20:34.008Z,17.80
2023-05-15T09:23:04.548Z,18.88
2023-05-15T09:25:44.742Z,18.77
2023-05-15T09:28:28.087Z,18.10
2023-05-15T09:31:05.860Z,17.10
2023-05-15T09:33:38.820Z,19.10
2023-05-15T09:36:08.386Z,19.52
2023-05-15T09:38:48.115Z,18.25
2023-05-15T09:41:15.259Z,18.80
2023-05-15T09:43:42.271Z,18.17
2023-05-15T09:46:12.312Z,17.95
2023-05-15T09:48:39.492Z,17.10
2023-05-15T09:51:15.437Z,16.67
2023-05-15T09:53:42.695Z,17.92
2023-05-15T09:56:10.574Z,19.38
2023-05-15T09:58:37.634Z,17.48
2023-05-15T10:01:11.995Z,17.15
2023-05-15T10:03:43.677Z,16.20
2023-05-15T10:06:19.440Z,16.40
2023-05-15T10:08:56.058Z,17.33
2023-05-15T10:11:24.605Z,16.67
2023-05-15T10:13:51.592Z,18.23
2023-05-15T10:16:21.652Z,18.63
2023-05-15T10:18:51.364Z,16.33
2023-05-15T10:21:23.070Z,17.30
2023-05-15T10:23:54.866Z,16.60
2023-05-15T10:26:42.937Z,16.75
2023-05-15T10:29:18.319Z,16.10
2023-05-15T10:31:49.096Z,17.55
2023-05-15T10:34:18.611Z,16.90
2023-05-15T10:36:46.341Z,16.67
2023-05-15T10:39:13.917Z,16.70
2023-05-15T10:41:40.906Z,16.02
2023-05-15T10:44:08.721Z,16.23
2023-05-15T10:46:37.269Z,17.15
2023-05-15T10:49:05.384Z,15.25
2023-05-15T10:51:36.001Z,15.10
2023-05-15T10:54:06.073Z,15.63
2023-05-15T10:56:37.317Z,15.80
2023-05-15T10:59:11.044Z,16.63
2023-05-15T11:01:41.016Z,18.40
2023-05-15T11:04:10.600Z,17.83
2023-05-15T11:06:41.322Z,16.88
2023-05-15T11:09:27.728Z,18.10
2023-05-15T11:11:58.280Z,18.00
2023-05-15T11:14:27.734Z,16.27
2023-05-15T11:16:54.654Z,15.45
2023-05-15T11:19:38.010Z,18.10
2023-05-15T11:22:27.666Z,18.30
2023-05-15T11:25:14.363Z,16.98
2023-05-15T11:27:43.214Z,16.58
2023-05-15T11:30:22.410Z,16.85
2023-05-15T11:32:52.407Z,17.25
2023-05-15T11:35:24.066Z,16.15
2023-05-15T11:38:12.328Z,16.23
2023-05-15T11:40:59.041Z,16.02
2023-05-15T11:43:28.756Z,16.38
2023-05-15T11:46:18.718Z,16.27
2023-05-15T11:48:50.434Z,18.15
2023-05-15T11:51:27.635Z,18.90
2023-05-15T11:53:56.063Z,16.45
2023-05-15T11:56:30.507Z,18.50
2023-05-15T11:58:59.797Z,18.15
2023-05-15T12:01:27.334Z,20.52
2023-05-15T12:03:54.867Z,21.55
2023-05-15T12:06:22.925Z,23.30
2023-05-15T12:08:53.902Z,22.08
2023-05-15T12:11:25.588Z,23.63
2023-05-15T12:13:55.000Z,26.95
2023-05-15T12:16:28.700Z,26.85
2023-05-15T12:18:59.773Z,26.40
2023-05-15T12:21:27.908Z,26.98
2023-05-15T12:24:07.527Z,29.27
2023-05-15T12:26:36.090Z,26.17
2023-05-15T12:29:05.175Z,25.92
2023-05-15T12:31:35.764Z,24.45
2023-05-15T12:34:03.219Z,24.13
2023-05-15T12:36:31.064Z,26.83
2023-05-15T12:38:58.804Z,24.00
2023-05-15T12:41:29.300Z,27.35
2023-05-15T12:43:56.358Z,26.00
2023-05-15T12:46:29.315Z,26.27
2023-05-15T12:48:59.857Z,24.40
2023-05-15T12:51:29.819Z,25.42
2023-05-15T12:53:59.662Z,24.83
2023-05-15T12:56:26.586Z,25.63
2023-05-15T12:58:54.605Z,25.02
2023-05-15T13:01:22.628Z,25.70
2023-05-15T13:03:51.003Z,23.95
2023-05-15T13:06:18.300Z,24.80
2023-05-15T13:08:46.495Z,24.17
2023-05-15T13:11:14.907Z,26.00
2023-05-15T13:13:43.093Z,23.45
2023-05-15T13:16:21.660Z,22.83
2023-05-15T13:18:48.895Z,23.63
2023-05-15T13:21:16.329Z,23.45
2023-05-15T13:23:43.497Z,23.08
2023-05-15T13:26:10.483Z,25.90
2023-05-15T13:28:37.470Z,22.33
2023-05-15T13:31:04.935Z,23.75
2023-05-15T13:33:32.066Z,21.98
2023-05-15T13:35:59.075Z,19.30
2023-05-15T13:38:26.211Z,20.52
2023-05-15T13:40:53.139Z,19.80
2023-05-15T13:43:20.178Z,20.27
2023-05-15T13:45:47.349Z,18.95
2023-05-15T13:48:14.316Z,18.90
2023-05-15T13:50:43.200Z,19.40
2023-05-15T13:53:10.161Z,23.45
2023-05-15T13:55:37.098Z,23.17
2023-05-15T13:58:04.455Z,22.52
2023-05-15T14:00:31.481Z,22.42
2023-05-15T14:02:58.673Z,22.08
2023-05-15T14:05:25.688Z,21.15
2023-05-15T14:07:52.650Z,22.67
2023-05-15T14:10:19.811Z,22.15
2023-05-15T14:12:47.175Z,22.08
2023-05-15T14:15:14.094Z,20.17
2023-05-15T14:17:41.486Z,21.27
2023-05-15T14:20:12.969Z,20.80
2023-05-15T14:22:40.726Z,18.85
2023-05-15T14:25:09.032Z,18.73
2023-05-15T14:27:36.103Z,18.15
2023-05-15T14:30:03.124Z,15.20
2023-05-15T14:32:30.122Z,14.93
2023-05-15T14:34:59.864Z,13.52
2023-05-15T14:37:28.371Z,12.68
2023-05-15T14:39:55.359Z,11.00
2023-05-15T14:42:22.325Z,10.55
2023-05-15T14:44:49.485Z,8.35
2023-05-15T14:47:16.853Z,6.20
2023-05-15T14:49:43.857Z,6.20
2023-05-15T14:52:12.572Z,5.15
2023-05-15T14:54:40.154Z,4.78
2023-05-15T14:57:08.023Z,5.20
2023-05-15T14:59:35.344Z,4.65
2023-05-15T15:02:02.607Z,4.53
2023-05-15T15:04:34.272Z,4.05
2023-05-15T15:07:05.096Z,4.30
2023-05-15T15:09:32.136Z,4.05
2023-05-15T15:12:02.342Z,4.20
2023-05-15T15:14:29.436Z,3.83
2023-05-15T15:16:56.451Z,3.60
2023-05-15T15:19:23.683Z,3.85
2023-05-15T15:21:50.819Z,3.53
2023-05-15T15:24:17.890Z,3.92
2023-05-15T15:26:44.868Z,3.90
2023-05-15T15:29:14.835Z,3.67
2023-05-15T15:31:42.098Z,3.70
2023-05-15T15:34:10.135Z,3.28
2023-05-15T15:36:41.493Z,3.72
2023-05-15T15:39:08.579Z,4.00
2023-05-15T15:41:38.615Z,3.38
2023-05-15T15:44:05.645Z,3.42
2023-05-15T15:46:32.640Z,3.65
2023-05-15T15:49:00.260Z,3.30
2023-05-15T15:51:27.380Z,3.28
2023-05-15T15:53:54.390Z,3.60
2023-05-15T15:56:21.413Z,3.10
2023-05-15T15:58:48.375Z,3.42
2023-05-15T16:01:15.538Z,3.40
2023-05-15T16:03:42.524Z,3.05
2023-05-15T16:06:09.467Z,2.70
2023-05-15T16:08:36.613Z,2.72
2023-05-15T16:11:04.111Z,2.90
2023-05-15T16:13:31.243Z,2.90
2023-05-15T16:15:58.218Z,2.95
2023-05-15T16:18:25.207Z,3.20
2023-05-15T16:20:52.172Z,2.65
2023-05-15T16:23:21.218Z,2.65
2023-05-15T16:25:48.286Z,2.50
2023-05-15T16:28:15.332Z,2.70
2023-05-15T16:30:48.976Z,2.53
2023-05-15T16:33:18.677Z,2.70
2023-05-15T16:35:47.375Z,2.33
2023-05-15T16:38:14.720Z,2.03
2023-05-15T16:40:41.736Z,2.53
2023-05-15T16:43:09.066Z,2.28
2023-05-15T16:45:36.248Z,2.53
2023-05-15T16:48:03.782Z,2.13
2023-05-15T16:50:32.716Z,2.60
2023-05-15T16:52:59.725Z,2.50
2023-05-15T16:55:27.011Z,2.58
2023-05-15T16:57:54.177Z,2.70
2023-05-15T17:00:21.990Z,2.58
2023-05-15T17:02:50.763Z,2.72
2023-05-15T17:05:18.014Z,2.40
2023-05-15T17:07:45.376Z,2.67
2023-05-15T17:10:13.342Z,2.60
2023-05-15T17:12:40.665Z,2.60
2023-05-15T17:15:08.508Z,2.50
2023-05-15T17:17:35.895Z,2.20
2023-05-15T17:20:05.674Z,2.03
2023-05-15T17:22:32.895Z,2.30
2023-05-15T17:24:59.919Z,1.90
2023-05-15T17:27:26.856Z,2.17
2023-05-15T17:29:53.781Z,2.10
2023-05-15T17:32:21.558Z,2.70
2023-05-15T17:34:50.147Z,2.47
2023-05-15T17:37:17.495Z,2.40
2023-05-15T17:39:44.441Z,2.13
2023-05-15T17:42:11.416Z,2.72
2023-05-15T17:44:38.610Z,2.75
2023-05-15T17:47:06.774Z,2.50
2023-05-15T17:49:34.498Z,2.72
2023-05-15T17:52:01.613Z,2.72
2023-05-15T17:54:28.765Z,3.22
2023-05-15T17:56:56.252Z,2.42
2023-05-15T17:59:23.499Z,2.10
2023-05-15T18:01:50.481Z,2.53
2023-05-15T18:04:17.544Z,2.90
2023-05-15T18:06:44.589Z,1.95
2023-05-15T18:09:11.945Z,2.37
2023-05-15T18:11:38.977Z,2.60
2023-05-15T18:14:10.404Z,2.73
2023-05-15T18:16:38.583Z,2.37
2023-05-15T18:19:05.856Z,2.30
2023-05-15T18:21:34.145Z,1.80
2023-05-15T18:24:02.048Z,1.90
2023-05-15T18:26:31.150Z,1.83
2023-05-15T18:28:58.088Z,2.05
2023-05-15T18:31:25.234Z,2.13
2023-05-15T18:33:52.220Z,2.40
2023-05-15T18:36:20.491Z,3.00
2023-05-15T18:38:47.533Z,2.93
2023-05-15T18:41:14.438Z,3.00
2023-05-15T18:43:41.415Z,2.40
2023-05-15T18:46:08.396Z,2.70
2023-05-15T18:48:35.400Z,3.33
2023-05-15T18:51:02.635Z,3.23
2023-05-15T18:53:29.606Z,2.97
2023-05-15T18:55:56.566Z,3.83
2023-05-15T18:58:24.049Z,4.00
2023-05-15T19:00:50.997Z,3.20
2023-05-15T19:03:19.251Z,3.70
2023-05-15T19:05:46.226Z,4.00
2023-05-15T19:08:13.122Z,3.33
2023-05-15T19:10:40.254Z,4.10
2023-05-15T19:13:07.140Z,3.50
2023-05-15T19:15:35.060Z,3.53
2023-05-15T19:18:02.029Z,3.43
2023-05-15T19:20:29.093Z,3.77
2023-05-15T19:22:56.031Z,3.77
2023-05-15T19:25:23.341Z,3.73
2023-05-15T19:27:50.372Z,3.80
2023-05-15T19:30:17.424Z,3.90
2023-05-15T19:32:45.457Z,3.97
2023-05-15T19:35:12.449Z,3.87
2023-05-15T19:37:39.451Z,4.00
2023-05-15T19:40:07.493Z,3.33
2023-05-15T19:42:34.464Z,2.83
2023-05-15T19:45:01.443Z,3.17
2023-05-15T19:47:28.411Z,3.93
2023-05-15T19:49:55.326Z,3.20
2023-05-15T19:52:22.356Z,3.37
2023-05-15T19:54:49.247Z,3.50
2023-05-15T19:57:16.304Z,2.80
2023-05-15T19:59:43.248Z,3.23
2023-05-15T20:02:11.166Z,3.10
2023-05-15T20:04:38.143Z,2.93
2023-05-15T20:07:05.607Z,3.47
2023-05-15T20:09:32.663Z,3.10
2023-05-15T20:11:59.726Z,2.77
2023-05-15T20:14:27.431Z,2.67
2023-05-15T20:16:54.309Z,3.33
2023-05-15T20:19:24.797Z,2.83
2023-05-15T20:21:52.269Z,2.47
2023-05-15T20:24:19.171Z,2.60
2023-05-15T20:26:46.207Z,2.77
2023-05-15T20:29:13.139Z,2.40
2023-05-15T20:31:40.382Z,2.43
2023-05-15T20:34:08.343Z,2.00
2023-05-15T20:36:38.733Z,1.80
2023-05-15T20:39:07.196Z,1.77
2023-05-15T20:41:34.714Z,2.13
2023-05-15T20:44:01.827Z,2.03
2023-05-15T20:46:30.236Z,1.60
2023-05-15T20:48:57.491Z,1.80
2023-05-15T20:51:24.603Z,2.50
2023-05-15T20:53:51.663Z,2.10
2023-05-15T20:56:18.835Z,2.83
2023-05-15T20:58:46.064Z,2.13
2023-05-15T21:01:13.178Z,2.07
2023-05-15T21:03:40.234Z,1.73
2023-05-15T21:06:08.037Z,1.57
2023-05-15T21:08:35.478Z,2.07
2023-05-15T21:11:02.544Z,2.23
2023-05-15T21:13:29.601Z,2.00
2023-05-15T21:15:56.554Z,1.90
2023-05-15T21:18:23.817Z,2.30
2023-05-15T21:20:50.881Z,3.13
2023-05-15T21:23:18.228Z,2.67
2023-05-15T21:25:45.268Z,1.93
2023-05-15T21:28:12.419Z,2.20
2023-05-15T21:30:39.393Z,2.10
2023-05-15T21:33:06.396Z,1.90
2023-05-15T21:35:33.678Z,1.80
2023-05-15T21:38:00.885Z,2.20
2023-05-15T21:40:28.020Z,2.00
2023-05-15T21:42:55.052Z,2.63
2023-05-15T21:45:22.032Z,2.30
2023-05-15T21:47:49.072Z,1.90
2023-05-15T21:50:16.128Z,2.50
2023-05-15T21:52:43.277Z,1.83
2023-05-15T21:55:10.611Z,2.47
2023-05-15T21:57:37.620Z,2.07
2023-05-15T22:00:07.480Z,2.47
2023-05-15T22:02:35.562Z,2.47
2023-05-15T22:05:03.749Z,2.27
2023-05-15T22:07:30.932Z,2.30
2023-05-15T22:09:57.814Z,2.30
2023-05-15T22:12:24.743Z,2.83
2023-05-15T22:14:58.840Z,2.73
2023-05-15T22:17:29.105Z,2.40
2023-05-15T22:20:06.605Z,2.47
2023-05-15T22:22:35.684Z,2.70
2023-05-15T22:25:02.841Z,2.60
2023-05-15T22:27:30.135Z,2.50
2023-05-15T22:29:57.707Z,2.77
2023-05-15T22:32:24.963Z,2.20
2023-05-15T22:34:51.990Z,2.73
2023-05-15T22:37:19.099Z,2.53
2023-05-15T22:39:46.139Z,2.20
2023-05-15T22:42:13.091Z,2.93
2023-05-15T22:44:40.314Z,2.53
2023-05-15T22:47:07.782Z,3.10
2023-05-15T22:49:34.907Z,3.00
2023-05-15T22:52:01.966Z,2.87
2023-05-15T22:54:29.352Z,3.20
2023-05-15T22:56:56.550Z,3.30
2023-05-15T22:59:23.593Z,3.33
2023-05-15T23:01:50.672Z,3.70
2023-05-15T23:04:18.634Z,3.17
2023-05-15T23:06:46.523Z,3.10
2023-05-15T23:09:13.512Z,3.10
2023-05-15T23:11:40.481Z,3.20
2023-05-15T23:14:09.807Z,3.40
2023-05-15T23:16:36.775Z,3.07
2023-05-15T23:19:04.301Z,3.70
2023-05-15T23:21:31.355Z,3.27
2023-05-15T23:23:59.104Z,3.20
2023-05-15T23:26:29.052Z,3.13
2023-05-15T23:28:55.997Z,3.13
2023-05-15T23:31:22.960Z,3.20
2023-05-15T23:33:51.673Z,3.43
2023-05-15T23:36:18.747Z,3.67
2023-05-15T23:38:45.763Z,2.90
2023-05-15T23:41:12.849Z,3.47
2023-05-15T23:43:39.801Z,3.27
2023-05-15T23:46:06.794Z,2.57
2023-05-15T23:48:34.071Z,3.40
2023-05-15T23:51:01.046Z,3.90
2023-05-15T23:53:28.029Z,2.70
2023-05-15T23:55:54.984Z,3.27
2023-05-15T23:58:21.975Z,3.47
